Home > Products > Valid Products > TAF

000
FTUS44 KFWD 300746 AAB
TAFDFW
TAF AMD
KDFW 300746Z 3008/0112 VRB05KT P6SM VCTS SCT100CB BKN300
      TEMPO 3008/3009 04020G30KT
     FM301000 21008KT P6SM SCT060
     FM010200 17008KT P6SM FEW060 SCT250=



000
FTUS44 KFWD 300713 AAA
TAFFTW
TAF AMD
KFTW 300713Z 3007/0106 21007KT P6SM FEW060 SCT300
      TEMPO 3008/3009 04015G25KT
     FM301500 21009KT P6SM SCT060
     FM010200 17008KT P6SM FEW060 SCT250=



000
FTUS44 KFWD 300713 AAA
TAFFTW
TAF AMD
KFTW 300713Z 3007/0106 21007KT P6SM FEW060 SCT300
      TEMPO 3008/3009 04015G25KT
     FM301500 21009KT P6SM SCT060
     FM010200 17008KT P6SM FEW060 SCT250=



000
FTUS44 KFWD 300703 AAA
TAFDFW
TAF AMD
KDFW 300703Z 3007/0112 21007KT P6SM FEW060 SCT300
      TEMPO 3008/3009 04020G30KT
     FM301500 21009KT P6SM SCT060
     FM010200 17008KT P6SM FEW060 SCT250=



000
FTUS44 KFWD 300609 AAA
TAFACT
TAF AMD
KACT 300609Z 3006/0106 19010KT P6SM SCT250
     FM301500 21009KT P6SM SCT060
     FM010200 17008KT P6SM FEW060 SCT250=



000
FTUS44 KFWD 300609 AAA
TAFACT
TAF AMD
KACT 300609Z 3006/0106 19010KT P6SM SCT250
     FM301500 21009KT P6SM SCT060
     FM010200 17008KT P6SM FEW060 SCT250=



000
FTUS44 KFWD 300520
TAFFTW
TAF
KFTW 300520Z 3006/0106 21007KT P6SM FEW060 SCT300
     FM301500 21009KT P6SM SCT060
     FM010200 17008KT P6SM FEW060 SCT250=



000
FTUS44 KFWD 300520
TAFDFW
TAF
KDFW 300520Z 3006/0112 21007KT P6SM FEW060 SCT300
     FM301500 21009KT P6SM SCT060
     FM010200 17008KT P6SM FEW060 SCT250=



000
FTUS44 KFWD 300520
TAFACT
TAF
KACT 300520Z 3006/0106 VRB05KT P6SM SCT250
     FM301500 21009KT P6SM SCT060
     FM010200 17008KT P6SM FEW060 SCT250=



000
FTUS44 KFWD 300308 AAA
TAFFTW
TAF AMD
KFTW 300308Z 3003/3024 19007KT P6SM FEW060 SCT300
     FM301400 21009KT P6SM SCT070=



000
FTUS44 KFWD 300308 AAA
TAFACT
TAF AMD
KACT 300308Z 3003/3024 18007KT P6SM SCT250
     FM301400 21009KT P6SM SCT070=



000
FTUS44 KFWD 300308 AAA
TAFDFW
TAF AMD
KDFW 300308Z 3003/0106 19007KT P6SM FEW060 SCT300
     FM301400 21009KT P6SM SCT070=



000
FTUS44 KFWD 300308 AAA
TAFACT
TAF AMD
KACT 300308Z 3003/3024 18007KT P6SM SCT250
     FM301400 21009KT P6SM SCT070=



000
FTUS44 KFWD 300308 AAA
TAFFTW
TAF AMD
KFTW 300308Z 3003/3024 19007KT P6SM FEW060 SCT300
     FM301400 21009KT P6SM SCT070=



000
FTUS44 KFWD 300308 AAA
TAFDFW
TAF AMD
KDFW 300308Z 3003/0106 19007KT P6SM FEW060 SCT300
     FM301400 21009KT P6SM SCT070=



000
FTUS44 KFWD 292329
TAFFTW
TAF
KFTW 292329Z 3000/3024 18007KT P6SM FEW060 SCT300
     FM301400 21009KT P6SM SCT070=



000
FTUS44 KFWD 292329
TAFACT
TAF
KACT 292329Z 3000/3024 19010KT P6SM VCTS BKN060CB OVC250
     FM300100 17007KT P6SM SCT250
     FM301400 21009KT P6SM SCT070=



000
FTUS44 KFWD 292329
TAFDFW
TAF
KDFW 292329Z 3000/0106 18007KT P6SM FEW060 SCT300
     FM301400 21009KT P6SM SCT070=



000
FTUS44 KFWD 292052 AAA
TAFFTW
TAF AMD
KFTW 292052Z 2921/3018 22010KT P6SM SCT060 BKN300
     FM292200 18007KT P6SM FEW060 SCT300
     FM301400 21009KT P6SM SCT070=



000
FTUS44 KFWD 292052 AAA
TAFACT
TAF AMD
KACT 292052Z 2921/3018 19010KT P6SM VCTS BKN060CB
     FM300100 17007KT P6SM SCT250
     FM301400 21009KT P6SM SCT070=



000
FTUS44 KFWD 292052 AAA
TAFDFW
TAF AMD
KDFW 292052Z 2921/3024 22010KT P6SM SCT060 BKN300
     FM292200 18007KT P6SM FEW060 SCT300
     FM301400 21009KT P6SM SCT070=



000
FTUS44 KFWD 291720
TAFACT
TAF
KACT 291720Z 2918/3018 22008KT P6SM SCT050 SCT300
     FM292000 19010KT P6SM VCTS BKN060CB
     FM300100 17007KT P6SM SCT250=



000
FTUS44 KFWD 291720
TAFFTW
TAF
KFTW 291720Z 2918/3018 22010KT P6SM SCT060 BKN300
     FM292200 18007KT P6SM FEW060 SCT300
     FM301400 21009KT P6SM SCT070=



000
FTUS44 KFWD 291720
TAFDFW
TAF
KDFW 291720Z 2918/3024 22010KT P6SM SCT060 BKN300
     FM292200 18007KT P6SM FEW060 SCT300
     FM301400 21009KT P6SM SCT070=



000
FTUS44 KFWD 291459 AAA
TAFACT
TAF AMD
KACT 291459Z 2915/3012 22008KT P6SM SCT050 SCT300
     FM291900 19010KT P6SM VCSH BKN060
     FM300100 17007KT P6SM SCT250=



000
FTUS44 KFWD 291459 AAA
TAFFTW
TAF AMD
KFTW 291459Z 2915/3012 21010KT P6SM SCT060 BKN300
     FM292200 18007KT P6SM FEW060=



000
FTUS44 KFWD 291459 AAA
TAFDFW
TAF AMD
KDFW 291459Z 2915/3018 22010KT P6SM SCT060 BKN300
     FM292200 18007KT P6SM FEW060 SCT300
     FM301400 21009KT P6SM SCT070=



000
FTUS44 KFWD 291125
TAFDFW
TAF
KDFW 291125Z 2912/3018 21010KT P6SM SCT060 BKN300
     FM292200 18007KT P6SM FEW060 SCT300
     FM301400 21009KT P6SM SCT070=



000
FTUS44 KFWD 291125
TAFACT
TAF
KACT 291125Z 2912/3012 21008KT P6SM SCT050 SCT300
     FM291900 19010KT P6SM VCSH BKN060
     FM300100 17007KT P6SM SCT250=



000
FTUS44 KFWD 291125
TAFFTW
TAF
KFTW 291125Z 2912/3012 21010KT P6SM SCT060 BKN300
     FM292200 18007KT P6SM FEW060=



000
FTUS44 KFWD 290902 AAA
TAFDFW
TAF AMD
KDFW 290902Z 2909/3012 19006KT P6SM FEW060 SCT300
     FM291500 21010KT P6SM SCT060 BKN300
     FM300300 17008KT P6SM FEW060=



000
FTUS44 KFWD 290902 AAA
TAFACT
TAF AMD
KACT 290902Z 2909/3006 20005KT P6SM FEW045 SCT300
     FM291500 21010KT P6SM SCT050
     FM300300 17008KT P6SM FEW050=



000
FTUS44 KFWD 290902 AAA
TAFACT
TAF AMD
KACT 290902Z 2909/3006 20005KT P6SM FEW045 SCT300
     FM291500 21010KT P6SM SCT050
     FM300300 17008KT P6SM FEW050=



000
FTUS44 KFWD 290902 AAA
TAFFTW
TAF AMD
KFTW 290902Z 2909/3006 19006KT P6SM FEW060 SCT300
     FM291500 21010KT P6SM SCT060 BKN300
     FM300300 17008KT P6SM FEW060=



000
FTUS44 KFWD 290902 AAA
TAFFTW
TAF AMD
KFTW 290902Z 2909/3006 19006KT P6SM FEW060 SCT300
     FM291500 21010KT P6SM SCT060 BKN300
     FM300300 17008KT P6SM FEW060=



000
FTUS44 KFWD 290902 AAA
TAFDFW
TAF AMD
KDFW 290902Z 2909/3012 19006KT P6SM FEW060 SCT300
     FM291500 21010KT P6SM SCT060 BKN300
     FM300300 17008KT P6SM FEW060=



000
FTUS44 KFWD 290520
TAFACT
TAF
KACT 290520Z 2906/3006 17005KT P6SM FEW050
     FM291500 21010KT P6SM SCT050
     FM300300 17008KT P6SM FEW050=



000
FTUS44 KFWD 290520
TAFDFW
TAF
KDFW 290520Z 2906/3012 17005KT P6SM FEW050
     FM291500 21010KT P6SM SCT060
     FM300300 17008KT P6SM FEW060=



000
FTUS44 KFWD 290520
TAFDFW
TAF
KDFW 290520Z 2906/3012 17005KT P6SM FEW050
     FM291500 21010KT P6SM SCT060
     FM300300 17008KT P6SM FEW060=



000
FTUS44 KFWD 290520
TAFFTW
TAF
KFTW 290520Z 2906/3006 17005KT P6SM FEW050
     FM291500 21010KT P6SM SCT060
     FM300300 17008KT P6SM FEW060=



000
FTUS44 KFWD 290520
TAFACT
TAF
KACT 290520Z 2906/3006 17005KT P6SM FEW050
     FM291500 21010KT P6SM SCT050
     FM300300 17008KT P6SM FEW050=



000
FTUS44 KFWD 290520
TAFFTW
TAF
KFTW 290520Z 2906/3006 17005KT P6SM FEW050
     FM291500 21010KT P6SM SCT060
     FM300300 17008KT P6SM FEW060=



000
FTUS44 KFWD 282321
TAFACT
TAF
KACT 282321Z 2900/2924 17005KT P6SM FEW050
     FM291500 21010KT P6SM SCT050=



000
FTUS44 KFWD 282321
TAFACT
TAF
KACT 282321Z 2900/2924 17005KT P6SM FEW050
     FM291500 21010KT P6SM SCT050=



000
FTUS44 KFWD 282321
TAFFTW
TAF
KFTW 282321Z 2900/2924 17005KT P6SM FEW050
     FM291500 21010KT P6SM SCT060=



000
FTUS44 KFWD 282321
TAFDFW
TAF
KDFW 282321Z 2900/3006 17005KT P6SM FEW050
     FM291500 21010KT P6SM SCT060=



000
FTUS44 KFWD 282321
TAFFTW
TAF
KFTW 282321Z 2900/2924 17005KT P6SM FEW050
     FM291500 21010KT P6SM SCT060=



000
FTUS44 KFWD 282321
TAFDFW
TAF
KDFW 282321Z 2900/3006 17005KT P6SM FEW050
     FM291500 21010KT P6SM SCT060=



000
FTUS44 KFWD 282100 AAA
TAFDFW
TAF AMD
KDFW 282100Z 2821/2924 17005KT P6SM SCT050
     FM291500 22010KT P6SM SCT050=



000
FTUS44 KFWD 282100 AAA
TAFACT
TAF AMD
KACT 282100Z 2821/2918 17005KT P6SM SCT045
     FM291500 21008KT P6SM SCT040=



000
FTUS44 KFWD 282100 AAA
TAFFTW
TAF AMD
KFTW 282100Z 2821/2918 17005KT P6SM SCT050
     FM291500 23008KT P6SM SCT050=



000
FTUS44 KFWD 281725
TAFACT
TAF
KACT 281725Z 2818/2918 17005KT P6SM SCT045
     FM291500 21008KT P6SM SCT040=



000
FTUS44 KFWD 281725
TAFDFW
TAF
KDFW 281725Z 2818/2924 17005KT P6SM SCT050
     FM291500 22010KT P6SM SCT050=



000
FTUS44 KFWD 281725
TAFFTW
TAF
KFTW 281725Z 2818/2918 17005KT P6SM SCT050
     FM291500 23008KT P6SM SCT050=



000
FTUS44 KFWD 281515 AAA
TAFFTW
TAF AMD
KFTW 281515Z 2815/2912 17005KT P6SM SCT060=



000
FTUS44 KFWD 281515 AAA
TAFDFW
TAF AMD
KDFW 281515Z 2815/2918 17005KT P6SM SCT060
     FM291500 22011KT P6SM SCT050=



000
FTUS44 KFWD 281515 AAA
TAFACT
TAF AMD
KACT 281515Z 2815/2912 17005KT P6SM SCT060=



000
FTUS44 KFWD 281515 AAA
TAFDFW
TAF AMD
KDFW 281515Z 2815/2918 17005KT P6SM SCT060
     FM291500 22011KT P6SM SCT050=



000
FTUS44 KFWD 281515 AAA
TAFFTW
TAF AMD
KFTW 281515Z 2815/2912 17005KT P6SM SCT060=



000
FTUS44 KFWD 281515 AAA
TAFACT
TAF AMD
KACT 281515Z 2815/2912 17005KT P6SM SCT060=



000
FTUS44 KFWD 281120
TAFACT
TAF
KACT 281120Z 2812/2912 18006KT P6SM SCT050 BKN300=



000
FTUS44 KFWD 281120
TAFDFW
TAF
KDFW 281120Z 2812/2918 17005KT P6SM FEW060 BKN300
     FM291500 22011KT P6SM SCT050 SCT300=



000
FTUS44 KFWD 281120
TAFFTW
TAF
KFTW 281120Z 2812/2912 17005KT P6SM FEW060 BKN300=



000
FTUS44 KFWD 280904 AAA
TAFACT
TAF AMD
KACT 280904Z 2809/2906 VRB03KT P6SM FEW050 BKN300
     FM282100 15005KT P6SM FEW060=



000
FTUS44 KFWD 280904 AAA
TAFDFW
TAF AMD
KDFW 280904Z 2809/2912 VRB03KT P6SM BKN300
     FM282100 13005KT P6SM FEW060=



000
FTUS44 KFWD 280904 AAA
TAFFTW
TAF AMD
KFTW 280904Z 2809/2906 VRB03KT P6SM BKN300
     FM282100 13005KT P6SM FEW060=



000
FTUS44 KFWD 280520
TAFDFW
TAF
KDFW 280520Z 2806/2912 03006KT P6SM SCT250
     FM281900 12004KT P6SM FEW060=



000
FTUS44 KFWD 280520
TAFACT
TAF
KACT 280520Z 2806/2906 03006KT P6SM SCT060 BKN250
     FM281700 12004KT P6SM FEW060=



000
FTUS44 KFWD 280520
TAFDFW
TAF
KDFW 280520Z 2806/2912 03006KT P6SM SCT250
     FM281900 12004KT P6SM FEW060=



000
FTUS44 KFWD 280520
TAFFTW
TAF
KFTW 280520Z 2806/2906 03006KT P6SM SCT250
     FM281900 12004KT P6SM FEW060=



000
FTUS44 KFWD 280319 AAA
TAFFTW
TAF AMD
KFTW 280319Z 2803/2824 03006KT P6SM SCT250
     FM281900 12004KT P6SM FEW060=



000
FTUS44 KFWD 280319 AAA
TAFACT
TAF AMD
KACT 280319Z 2803/2824 03006KT P6SM SCT060 BKN250
     FM281700 12004KT P6SM FEW060=



000
FTUS44 KFWD 280319 AAA
TAFDFW
TAF AMD
KDFW 280319Z 2803/2906 03006KT P6SM SCT250
     FM281900 12004KT P6SM FEW060=



000
FTUS44 KFWD 272320
TAFACT
TAF
KACT 272320Z 2800/2824 01011KT P6SM SCT050
     FM280300 03006KT P6SM SKC
     FM281700 12004KT P6SM FEW060=



000
FTUS44 KFWD 272320
TAFFTW
TAF
KFTW 272320Z 2800/2824 03012KT P6SM SCT050
     FM280300 03006KT P6SM SKC
     FM281900 12004KT P6SM FEW060=



000
FTUS44 KFWD 272320
TAFFTW
TAF
KFTW 272320Z 2800/2824 03012KT P6SM SCT050
     FM280300 03006KT P6SM SKC
     FM281900 12004KT P6SM FEW060=



000
FTUS44 KFWD 272320
TAFDFW
TAF
KDFW 272320Z 2800/2906 01012KT P6SM SCT050
     FM280300 03006KT P6SM SKC
     FM281900 12004KT P6SM FEW060=



000
FTUS44 KFWD 272320
TAFACT
TAF
KACT 272320Z 2800/2824 01011KT P6SM SCT050
     FM280300 03006KT P6SM SKC
     FM281700 12004KT P6SM FEW060=



000
FTUS44 KFWD 272320
TAFDFW
TAF
KDFW 272320Z 2800/2906 01012KT P6SM SCT050
     FM280300 03006KT P6SM SKC
     FM281900 12004KT P6SM FEW060=



000
FTUS44 KFWD 272246 AAC
TAFACT
TAF AMD
KACT 272246Z 2723/2818 01011KT P6SM SCT030
     FM280300 01005KT P6SM SKC=



000
FTUS44 KFWD 272246 AAC
TAFACT
TAF AMD
KACT 272246Z 2723/2818 01011KT P6SM SCT030
     FM280300 01005KT P6SM SKC=



000
FTUS44 KFWD 272125 AAB
TAFACT
TAF AMD
KACT 272125Z 2721/2818 34004KT P6SM VCTS SCT020CB BKN100
      TEMPO 2721/2723 VRB25G35KT 4SM TSRA BKN025CB
     FM272300 01011KT P6SM SCT030
     FM280300 01005KT P6SM SKC=



000
FTUS44 KFWD 272050 AAA
TAFFTW
TAF AMD
KFTW 272050Z 2721/2818 01012KT P6SM SCT040
     FM280300 04006KT P6SM SKC=



000
FTUS44 KFWD 272050 AAA
TAFDFW
TAF AMD
KDFW 272050Z 2721/2824 01012KT P6SM SCT040
     FM280300 03006KT P6SM SKC
     FM281900 12004KT P6SM FEW060=



000
FTUS44 KFWD 272044 AAA
TAFACT
TAF AMD
KACT 272044Z 2721/2818 34004KT P6SM VCTS SCT020CB BKN100
     FM272300 01011KT P6SM SCT030
     FM280300 01005KT P6SM SKC=



000
FTUS44 KFWD 271720
TAFFTW
TAF
KFTW 271720Z 2718/2818 03012KT P6SM SCT030
     FM280300 04006KT P6SM SKC=



000
FTUS44 KFWD 271720
TAFACT
TAF
KACT 271720Z 2718/2818 02009KT P6SM VCSH SCT025
     FM272000 01011KT P6SM SCT040
     FM280300 01005KT P6SM SKC=



000
FTUS44 KFWD 271720
TAFDFW
TAF
KDFW 271720Z 2718/2824 01012KT P6SM SCT030
     FM280300 03006KT P6SM SKC
     FM281900 12004KT P6SM FEW060=



000
FTUS44 KFWD 271510 AAA
TAFACT
TAF AMD
KACT 271510Z 2715/2812 24006KT P6SM VCTS SCT040CB BKN100
     FM271800 02009KT P6SM SCT050 BKN100
     FM280300 35004KT P6SM SCT300=



000
FTUS44 KFWD 271510 AAA
TAFFTW
TAF AMD
KFTW 271510Z 2715/2812 02012KT P6SM FEW015 SCT200
     FM280100 04006KT P6SM SCT300=



000
FTUS44 KFWD 271510 AAA
TAFDFW
TAF AMD
KDFW 271510Z 2715/2818 02012KT P6SM FEW015 SCT200
     FM280100 04006KT P6SM SCT300=



000
FTUS44 KFWD 271127
TAFDFW
TAF
KDFW 271127Z 2712/2818 33005KT P6SM SCT015 SCT070 BKN200
      TEMPO 2712/2714 BKN015
     FM271600 01012KT P6SM SCT040 SCT300
     FM280100 04006KT P6SM SCT300=



000
FTUS44 KFWD 271127
TAFFTW
TAF
KFTW 271127Z 2712/2812 33005KT P6SM SCT015 SCT070 BKN200
      TEMPO 2712/2714 BKN015
     FM271600 01012KT P6SM SCT040 SCT300
     FM280100 04006KT P6SM SCT300=



000
FTUS44 KFWD 271127
TAFFTW
TAF
KFTW 271127Z 2712/2812 33005KT P6SM SCT015 SCT070 BKN200
      TEMPO 2712/2714 BKN015
     FM271600 01012KT P6SM SCT040 SCT300
     FM280100 04006KT P6SM SCT300=



000
FTUS44 KFWD 271127
TAFDFW
TAF
KDFW 271127Z 2712/2818 33005KT P6SM SCT015 SCT070 BKN200
      TEMPO 2712/2714 BKN015
     FM271600 01012KT P6SM SCT040 SCT300
     FM280100 04006KT P6SM SCT300=



000
FTUS44 KFWD 271127
TAFACT
TAF
KACT 271127Z 2712/2812 16008KT P6SM VCSH SCT040 BKN100 BKN200
     FM271600 31007KT P6SM VCSH SCT035 BKN100
     FM271900 02009KT P6SM SCT050 SCT150 BKN300
     FM280300 35004KT P6SM SCT300=



000
FTUS44 KFWD 270905 AAC
TAFFTW
TAF AMD
KFTW 270905Z 2709/2806 VRB04KT P6SM VCSH SCT060 SCT100 OVC250
     FM271100 35009KT P6SM BKN100
     FM271500 01012KT P6SM FEW050
     FM272200 35006KT P6SM FEW060=



000
FTUS44 KFWD 270905 AAB
TAFDFW
TAF AMD
KDFW 270905Z 2709/2812 VRB04KT P6SM VCSH SCT060 SCT100 OVC250
     FM271100 35009KT P6SM BKN100
     FM271500 01012KT P6SM FEW050
     FM272200 35006KT P6SM FEW060=



000
FTUS44 KFWD 270905 AAB
TAFACT
TAF AMD
KACT 270905Z 2709/2806 28005KT 5SM -TSRA SCT020 BKN060CB OVC090
      TEMPO 2709/2710 3SM TSRA BKN025CB
     FM271000 35007KT P6SM VCSH SCT080 BKN100
     FM271600 35010KT P6SM SCT050
     FM272100 VRB06KT P6SM SCT050=



000
FTUS44 KFWD 270905 AAB
TAFDFW
TAF AMD
KDFW 270905Z 2709/2812 VRB04KT P6SM VCSH SCT060 SCT100 OVC250
     FM271100 35009KT P6SM BKN100
     FM271500 01012KT P6SM FEW050
     FM272200 35006KT P6SM FEW060=



000
FTUS44 KFWD 270905 AAC
TAFFTW
TAF AMD
KFTW 270905Z 2709/2806 VRB04KT P6SM VCSH SCT060 SCT100 OVC250
     FM271100 35009KT P6SM BKN100
     FM271500 01012KT P6SM FEW050
     FM272200 35006KT P6SM FEW060=



000
FTUS44 KFWD 270905 AAB
TAFACT
TAF AMD
KACT 270905Z 2709/2806 28005KT 5SM -TSRA SCT020 BKN060CB OVC090
      TEMPO 2709/2710 3SM TSRA BKN025CB
     FM271000 35007KT P6SM VCSH SCT080 BKN100
     FM271600 35010KT P6SM SCT050
     FM272100 VRB06KT P6SM SCT050=



    US Dept of Commerce
    National Oceanic and Atmospheric Administration
    National Weather Service
    1325 East West Highway
    Silver Spring, MD 20910
    Page Author: NWS Internet Services Team
Disclaimer
Information Quality
Credits
Glossary
Privacy Policy
Freedom of Information Act (FOIA)
About Us
Career Opportunities